createdAt,value
2022-09-15T00:05:13.197Z,11.89
2022-09-15T00:10:29.413Z,11.91
2022-09-15T00:15:38.375Z,11.94
2022-09-15T00:20:56.013Z,11.91
2022-09-15T00:26:10.123Z,11.83
2022-09-15T00:31:29.498Z,11.79
2022-09-15T00:36:57.311Z,11.82
2022-09-15T00:42:25.356Z,11.85
2022-09-15T00:47:53.369Z,11.86
2022-09-15T00:53:24.099Z,11.93
2022-09-15T00:58:55.929Z,12.04
2022-09-15T01:04:22.455Z,12.14
2022-09-15T01:09:45.405Z,12.20
2022-09-15T01:15:07.158Z,12.20
2022-09-15T01:20:57.713Z,12.20
2022-09-15T01:26:29.163Z,12.21
2022-09-15T01:32:21.979Z,12.19
2022-09-15T01:37:57.005Z,12.15
2022-09-15T01:43:28.527Z,12.08
2022-09-15T01:49:00.943Z,12.08
2022-09-15T01:54:33.958Z,12.12
2022-09-15T01:59:41.575Z,12.14
2022-09-15T02:05:20.808Z,12.13
2022-09-15T02:11:18.307Z,12.12
2022-09-15T02:16:50.114Z,12.12
2022-09-15T02:22:24.085Z,12.14
2022-09-15T02:27:50.855Z,12.22
2022-09-15T02:33:24.320Z,12.26
2022-09-15T02:38:54.677Z,12.26
2022-09-15T02:44:07.265Z,12.27
2022-09-15T02:49:34.989Z,12.33
2022-09-15T02:55:02.643Z,12.40
2022-09-15T03:00:29.487Z,12.48
2022-09-15T03:06:16.639Z,12.53
2022-09-15T03:11:42.996Z,12.59
2022-09-15T03:16:54.108Z,12.66
2022-09-15T03:22:13.069Z,12.71
2022-09-15T03:27:23.379Z,12.71
2022-09-15T03:32:46.947Z,12.71
2022-09-15T03:38:04.965Z,12.74
2022-09-15T03:43:22.630Z,12.76
2022-09-15T03:48:50.479Z,12.76
2022-09-15T03:54:07.327Z,12.74
2022-09-15T03:59:25.929Z,12.71
2022-09-15T04:04:41.978Z,12.76
2022-09-15T04:10:12.002Z,12.80
2022-09-15T04:15:29.656Z,12.81
2022-09-15T04:21:00.097Z,12.79
2022-09-15T04:26:25.926Z,12.79
2022-09-15T04:31:53.964Z,12.80
2022-09-15T04:37:22.088Z,12.83
2022-09-15T04:42:43.325Z,12.79
2022-09-15T04:48:08.243Z,12.77
2022-09-15T04:53:37.431Z,12.78
2022-09-15T04:59:02.470Z,12.82
2022-09-15T05:04:14.767Z,12.89
2022-09-15T05:09:42.497Z,12.92
2022-09-15T05:15:01.043Z,12.93
2022-09-15T05:20:12.892Z,12.98
2022-09-15T05:25:43.851Z,13.09
2022-09-15T05:31:08.662Z,13.24
2022-09-15T05:36:36.553Z,13.36
2022-09-15T05:42:07.349Z,13.52
2022-09-15T05:47:35.140Z,13.69
2022-09-15T05:52:43.838Z,13.84
2022-09-15T05:58:13.251Z,14.27
2022-09-15T06:03:44.958Z,15.04
2022-09-15T06:09:09.551Z,15.68
2022-09-15T06:14:25.023Z,16.15
2022-09-15T06:19:52.842Z,16.52
2022-09-15T06:25:13.540Z,16.82
2022-09-15T06:30:41.792Z,17.08
2022-09-15T06:36:01.437Z,17.39
2022-09-15T06:41:42.655Z,17.70
2022-09-15T06:47:20.055Z,17.95
2022-09-15T06:52:37.980Z,18.22
2022-09-15T06:57:45.877Z,18.52
2022-09-15T07:03:13.922Z,18.77
2022-09-15T07:08:21.938Z,19.01
2022-09-15T07:13:33.064Z,19.33
2022-09-15T07:19:02.031Z,19.73
2022-09-15T07:24:31.313Z,20.23
2022-09-15T07:29:41.790Z,20.71
2022-09-15T07:34:48.142Z,21.21
2022-09-15T07:39:56.711Z,21.82
2022-09-15T07:45:11.290Z,22.48
2022-09-15T07:50:30.420Z,23.16
2022-09-15T07:55:55.173Z,23.71
2022-09-15T08:01:07.333Z,24.38
2022-09-15T08:06:28.031Z,24.92
2022-09-15T08:11:38.539Z,25.61
2022-09-15T08:17:10.722Z,25.85
2022-09-15T08:22:39.718Z,25.67
2022-09-15T08:27:47.368Z,25.22
2022-09-15T08:32:59.865Z,24.46
2022-09-15T08:38:07.785Z,23.96
2022-09-15T08:43:22.147Z,23.42
2022-09-15T08:48:32.940Z,23.15
2022-09-15T08:53:45.713Z,23.32
2022-09-15T08:58:53.500Z,23.34
2022-09-15T09:04:19.909Z,23.12
2022-09-15T09:09:54.146Z,22.79
2022-09-15T09:15:28.409Z,22.79
2022-09-15T09:20:49.790Z,22.75
2022-09-15T09:26:11.665Z,22.77
2022-09-15T09:31:23.146Z,22.28
2022-09-15T09:36:45.224Z,21.79
2022-09-15T09:42:02.711Z,21.24
2022-09-15T09:47:10.765Z,20.86
2022-09-15T09:52:41.073Z,20.49
2022-09-15T09:58:16.134Z,20.05
2022-09-15T10:03:45.370Z,19.63
2022-09-15T10:09:19.074Z,19.22
2022-09-15T10:14:42.143Z,18.88
2022-09-15T10:20:00.959Z,18.68
2022-09-15T10:25:55.048Z,18.56
2022-09-15T10:31:32.352Z,18.53
2022-09-15T10:36:50.133Z,18.59
2022-09-15T10:42:12.347Z,18.65
2022-09-15T10:47:35.982Z,18.66
2022-09-15T10:52:56.076Z,18.71
2022-09-15T10:58:35.467Z,18.82
2022-09-15T11:04:12.449Z,18.86
2022-09-15T11:09:48.085Z,18.83
2022-09-15T11:15:10.363Z,18.85
2022-09-15T11:21:01.273Z,18.92
2022-09-15T11:26:16.069Z,19.07
2022-09-15T11:31:29.620Z,19.16
2022-09-15T11:36:48.091Z,19.19
2022-09-15T11:42:01.411Z,19.18
2022-09-15T11:47:23.767Z,19.25
2022-09-15T11:52:48.231Z,19.37
2022-09-15T11:58:23.306Z,19.40
2022-09-15T12:03:59.000Z,19.43
2022-09-15T12:09:08.565Z,19.38
2022-09-15T12:14:29.448Z,19.25
2022-09-15T12:19:57.313Z,19.13
2022-09-15T12:25:32.505Z,19.12
2022-09-15T12:30:49.550Z,19.09
2022-09-15T12:35:57.712Z,19.04
2022-09-15T12:41:11.459Z,18.96
2022-09-15T12:46:30.235Z,18.93
2022-09-15T12:51:58.999Z,18.95
2022-09-15T12:57:08.937Z,18.92
2022-09-15T13:07:59.020Z,19.02
2022-09-15T13:13:24.360Z,19.04
2022-09-15T13:18:45.832Z,19.02
2022-09-15T13:23:56.544Z,18.96
2022-09-15T13:29:26.166Z,18.87
2022-09-15T13:35:29.966Z,18.81
2022-09-15T13:41:42.566Z,18.94
2022-09-15T13:47:19.984Z,19.15
2022-09-15T13:53:21.187Z,19.29
2022-09-15T14:04:06.600Z,19.39
2022-09-15T14:09:34.751Z,19.47
2022-09-15T14:15:13.914Z,19.45
2022-09-15T14:20:31.714Z,19.29
2022-09-15T14:25:50.524Z,19.19
2022-09-15T14:31:00.853Z,19.03
2022-09-15T14:36:24.112Z,18.91
2022-09-15T14:41:43.176Z,18.74
2022-09-15T14:47:01.182Z,18.57
2022-09-15T14:52:25.302Z,18.43
2022-09-15T14:57:37.881Z,18.32
2022-09-15T15:02:59.100Z,18.14
2022-09-15T15:08:32.262Z,17.96
2022-09-15T15:13:47.864Z,17.84
2022-09-15T15:19:23.520Z,17.82
2022-09-15T15:24:53.035Z,17.82
2022-09-15T15:30:58.461Z,17.74
2022-09-15T15:43:27.012Z,17.00
2022-09-15T15:48:41.296Z,16.63
2022-09-15T15:53:54.462Z,16.33
2022-09-15T15:59:22.738Z,16.11
2022-09-15T16:04:59.016Z,15.86
2022-09-15T16:10:55.635Z,15.73
2022-09-15T16:16:25.017Z,15.57
2022-09-15T16:21:48.646Z,15.46
2022-09-15T16:26:58.500Z,15.40
2022-09-15T16:32:20.674Z,15.35
2022-09-15T16:37:48.485Z,15.33
2022-09-15T16:43:10.551Z,15.29
2022-09-15T16:48:22.491Z,15.22
2022-09-15T16:53:35.585Z,15.12
2022-09-15T16:58:45.595Z,15.04
2022-09-15T17:04:10.977Z,14.97
2022-09-15T17:09:19.364Z,14.90
2022-09-15T17:14:38.810Z,14.84
2022-09-15T17:20:05.703Z,14.73
2022-09-15T17:25:56.950Z,14.59
2022-09-15T17:31:37.530Z,14.42
2022-09-15T17:37:14.525Z,14.25
2022-09-15T17:42:34.715Z,14.11
2022-09-15T17:48:03.305Z,13.95
2022-09-15T17:53:31.622Z,13.84
2022-09-15T17:58:48.581Z,13.80
2022-09-15T18:04:10.982Z,13.77
2022-09-15T18:09:24.173Z,13.70
2022-09-15T18:14:41.175Z,13.62
2022-09-15T18:20:16.036Z,13.51
2022-09-15T18:25:45.722Z,13.34
2022-09-15T18:31:17.823Z,13.16
2022-09-15T18:36:42.473Z,13.01
2022-09-15T18:42:10.572Z,12.87
2022-09-15T18:47:20.647Z,12.72
2022-09-15T18:52:33.675Z,12.63
2022-09-15T18:58:05.697Z,12.51
2022-09-15T19:03:30.693Z,12.40
2022-09-15T19:08:48.635Z,12.26
2022-09-15T19:14:44.608Z,12.06
2022-09-15T19:19:57.730Z,11.84
2022-09-15T19:25:10.670Z,11.64
2022-09-15T19:30:22.104Z,11.48
2022-09-15T19:35:33.539Z,11.39
2022-09-15T19:41:25.777Z,11.33
2022-09-15T19:46:52.729Z,11.19
2022-09-15T19:52:19.610Z,11.02
2022-09-15T19:57:27.964Z,10.86
2022-09-15T20:02:41.332Z,10.73
2022-09-15T20:08:01.340Z,10.63
2022-09-15T20:13:13.622Z,10.57
2022-09-15T20:18:47.761Z,10.54
2022-09-15T20:24:08.601Z,10.52
2022-09-15T20:29:20.575Z,10.45
2022-09-15T20:34:30.680Z,10.39
2022-09-15T20:39:41.761Z,10.37
2022-09-15T20:44:50.835Z,10.39
2022-09-15T20:50:04.540Z,10.43
2022-09-15T20:55:15.753Z,10.48
2022-09-15T21:00:44.713Z,10.55
2022-09-15T21:06:15.810Z,10.65
2022-09-15T21:11:40.333Z,10.77
2022-09-15T21:16:54.156Z,10.91
2022-09-15T21:22:06.117Z,11.02
2022-09-15T21:27:31.385Z,11.07
2022-09-15T21:32:44.304Z,11.14
2022-09-15T21:38:00.063Z,11.25
2022-09-15T21:43:10.926Z,11.32
2022-09-15T21:48:22.537Z,11.33
2022-09-15T21:53:32.833Z,11.31
2022-09-15T21:58:45.305Z,11.26
2022-09-15T22:03:55.121Z,11.21
2022-09-15T22:09:05.362Z,11.21
2022-09-15T22:14:16.499Z,11.23
2022-09-15T22:19:25.046Z,11.27
2022-09-15T22:24:33.341Z,11.28
2022-09-15T22:29:50.945Z,11.30
2022-09-15T22:35:09.961Z,11.35
2022-09-15T22:40:29.292Z,11.40
2022-09-15T22:45:46.750Z,11.41
2022-09-15T22:50:55.777Z,11.42
2022-09-15T22:56:20.224Z,11.43
2022-09-15T23:01:32.504Z,11.46
2022-09-15T23:07:00.491Z,11.51
2022-09-15T23:12:10.554Z,11.53
2022-09-15T23:17:22.205Z,11.53
2022-09-15T23:22:40.575Z,11.47
2022-09-15T23:27:57.186Z,11.39
2022-09-15T23:33:05.108Z,11.35
2022-09-15T23:38:14.139Z,11.32
2022-09-15T23:43:27.477Z,11.29
2022-09-15T23:48:41.087Z,11.26
2022-09-15T23:53:55.558Z,11.20
2022-09-15T23:59:03.514Z,11.08
